Terminal Aerodrome Forecast
Issued by NWS

Home | Current Version | Previous Version | Text Only | Print | Product List | Glossary On
Versions: 1 2 3 4 5 6 7 8 9 10 11 12 13 14 15 16 17 18
299
FTUS41 KAKQ 080556 RRA
TAFPHF
TAF
KPHF 080556Z 0806/0906 36013G19KT P6SM OVC100
     FM081000 35010G15KT P6SM SCT100
     FM081400 34008KT P6SM SCT030 SCT120
     FM081800 05006KT P6SM SCT030 BKN100
     FM082100 12006KT P6SM OVC050
     FM090200 10004KT 5SM -RA BR OVC015=

USA.gov is the U.S. government's official web portal to all federal, state and local government web resources and services.